KATL/ATL METAR and TAF weather

Enter ICAO airport designator
Station Type Date Time Source
KATL METAR 2022/06/30 12:52 UTC NOAA

KATL 301252Z 09004KT 10SM FEW018 SCT200 BKN250 BKN300 25/20 A3025 RMK AO2 SLP232 T02500200


Station Type Date Time Source
KATL Decoded METAR 2022/06/30 12:52 UTC NOAA

HARTSFIELD-JACKSON ATLANTA, GA, United States (KATL) 33-39N 84-26W
Jun 30, 2022 - 08:52 AM EDT / 2022.06.30 1252 UTC
Wind: from the E (090 degrees) at 5 MPH (4 KT):0
Visibility: 10 mile(s):0
Sky conditions: mostly cloudy
Temperature: 77.0 F (25.0 C)
Dew Point: 68.0 F (20.0 C)
Relative Humidity: 73%
Pressure (altimeter): 30.25 in. Hg (1024 hPa)
ob: KATL 301252Z 09004KT 10SM FEW018 SCT200 BKN250 BKN300 25/20 A3025 RMK AO2 SLP232 T02500200
cycle: 13

Station Type Date Time Source
KATL TAF 2022/06/30 12:24 UTC NOAA

TAF KATL 301121Z 3012/0118 09005KT P6SM SCT008 BKN025 BKN035
FM301400 11006KT P6SM BKN025 BKN050
FM301700 14007KT P6SM VCSH SCT025 BKN060
TEMPO 3022/0102 4SM TSRA BR BKN035CB
FM010800 11004KT P6SM SCT008 BKN020
FM011500 10006KT P6SM VCSH BKN025

Example: see airport list